Time;durP1;ratioP1;P1;durP2;ratioP2;P2;SDS_P1;SDS_P2;PMS_P1;PMS_P2;Temp;Humidity;BMP_temperature;BMP_pressure;BME280_temperature;BME280_humidity;BME280_pressure;Samples;Min_cycle;Max_cycle;Signal;HPM_P1;HPM_P2
2023/06/29 00:01:07;;;;;;;3.60;2.90;;;24.60;63.30;;;;;;7730037;23;20210;-59
2023/06/29 00:04:09;;;;;;;2.90;2.50;;;25.10;63.70;;;;;;7731653;22;20020;-59
2023/06/29 00:07:11;;;;;;;3.20;2.58;;;24.90;63.70;;;;;;7733534;23;20047;-58
2023/06/29 00:10:13;;;;;;;3.42;2.83;;;25.00;64.30;;;;;;7733581;23;20012;-58
2023/06/29 00:13:17;;;;;;;3.42;2.97;;;24.90;63.60;;;;;;7733762;22;20020;-59
2023/06/29 00:16:22;;;;;;;2.88;2.58;;;25.00;63.60;;;;;;7731973;23;20020;-58
2023/06/29 00:19:24;;;;;;;3.10;2.78;;;25.10;63.70;;;;;;7731417;23;20016;-58
2023/06/29 00:22:28;;;;;;;3.30;2.53;;;25.50;64.40;;;;;;7732935;23;20016;-59
2023/06/29 00:25:32;;;;;;;3.05;2.53;;;25.10;63.90;;;;;;7732747;22;20494;-59
2023/06/29 00:28:33;;;;;;;3.25;2.72;;;24.90;64.10;;;;;;7729989;23;20531;-59
2023/06/29 00:31:35;;;;;;;2.97;2.60;;;26.00;64.60;;;;;;7733310;23;20042;-59
2023/06/29 00:34:37;;;;;;;3.80;2.90;;;24.90;64.00;;;;;;7733484;22;20020;-59
2023/06/29 00:37:39;;;;;;;3.30;3.00;;;25.00;64.10;;;;;;7734876;23;20561;-59
2023/06/29 00:40:41;;;;;;;3.20;2.70;;;25.00;64.20;;;;;;7736826;22;20100;-59
2023/06/29 00:43:43;;;;;;;3.00;2.47;;;25.10;64.40;;;;;;7737108;22;20022;-59
2023/06/29 00:46:45;;;;;;;2.60;2.40;;;25.00;64.30;;;;;;7735758;23;20016;-59
2023/06/29 00:49:47;;;;;;;2.88;2.30;;;24.90;64.30;;;;;;7736598;23;20012;-59
2023/06/29 00:52:48;;;;;;;3.40;2.80;;;24.90;64.50;;;;;;7736117;23;20016;-59
2023/06/29 00:55:50;;;;;;;3.03;2.42;;;24.50;64.30;;;;;;7736230;23;20020;-59
2023/06/29 00:58:55;;;;;;;3.47;2.80;;;25.00;64.50;;;;;;7734175;22;20057;-59
2023/06/29 01:01:58;;;;;;;2.63;2.20;;;25.00;64.60;;;;;;7735234;22;20020;-59
2023/06/29 01:05:03;;;;;;;3.40;2.40;;;24.50;64.40;;;;;;7736532;22;20017;-59
2023/06/29 01:08:09;;;;;;;3.30;2.90;;;24.90;64.60;;;;;;7722058;23;20017;-59
2023/06/29 01:11:15;;;;;;;2.80;2.40;;;25.00;64.70;;;;;;7736364;22;20484;-59
2023/06/29 01:14:23;;;;;;;3.47;2.83;;;24.90;64.60;;;;;;7770448;22;20073;-89
2023/06/29 01:17:31;;;;;;;4.05;2.72;;;24.80;65.10;;;;;;7746206;22;20024;-89
2023/06/29 01:20:34;;;;;;;3.10;2.70;;;23.60;64.70;;;;;;7758086;22;20062;-89
2023/06/29 01:23:39;;;;;;;2.90;2.40;;;22.90;64.30;;;;;;7743395;23;20095;-90
2023/06/29 01:26:43;;;;;;;3.13;2.60;;;26.00;66.50;;;;;;7771644;22;20028;-89
2023/06/29 01:29:44;;;;;;;3.38;2.80;;;24.40;66.50;;;;;;7781447;22;20049;-89
2023/06/29 01:32:46;;;;;;;2.92;2.42;;;23.80;65.60;;;;;;7781520;22;20102;-89
2023/06/29 01:35:50;;;;;;;3.17;2.67;;;26.80;68.40;;;;;;7778991;22;20024;-89
2023/06/29 01:39:01;;;;;;;2.63;2.28;;;24.70;65.60;;;;;;7710977;23;20017;-89
2023/06/29 01:42:05;;;;;;;2.83;2.38;;;24.40;64.90;;;;;;7718820;22;20040;-89
2023/06/29 01:45:09;;;;;;;2.95;2.28;;;22.40;63.80;;;;;;7776040;22;20480;-89
2023/06/29 01:48:11;;;;;;;2.65;2.22;;;25.50;65.70;;;;;;7782035;22;20349;-89
2023/06/29 01:51:14;;;;;;;3.28;2.50;;;23.60;64.90;;;;;;7779639;22;20020;-89
2023/06/29 01:54:18;;;;;;;3.08;2.30;;;23.10;65.80;;;;;;7729183;22;20066;-89
2023/06/29 01:57:20;;;;;;;2.60;2.40;;;26.90;67.10;;;;;;7795527;22;20107;-89
2023/06/29 02:00:22;;;;;;;2.60;2.15;;;23.60;66.20;;;;;;7857398;22;20027;-89
2023/06/29 02:03:29;;;;;;;2.85;2.50;;;24.30;66.20;;;;;;7752223;22;20016;-89
2023/06/29 02:06:34;;;;;;;2.70;2.10;;;23.60;65.80;;;;;;7779405;22;20016;-89
2023/06/29 02:09:36;;;;;;;2.22;1.90;;;23.50;65.30;;;;;;7748311;22;20425;-89
2023/06/29 02:12:40;;;;;;;2.40;2.20;;;24.20;66.10;;;;;;7817539;22;20327;-90
2023/06/29 02:15:41;;;;;;;2.80;2.20;;;24.50;65.30;;;;;;7817563;22;20051;-89
2023/06/29 02:18:44;;;;;;;2.70;2.20;;;24.80;66.20;;;;;;7856702;22;20020;-89
2023/06/29 02:21:46;;;;;;;2.70;2.17;;;23.90;65.50;;;;;;7779020;22;20020;-89
2023/06/29 02:24:48;;;;;;;2.40;2.00;;;26.00;66.30;;;;;;7741594;23;20412;-89
2023/06/29 02:27:50;;;;;;;2.47;2.03;;;23.70;65.60;;;;;;7856563;22;20311;-89
2023/06/29 02:30:52;;;;;;;2.70;2.20;;;24.20;65.40;;;;;;7823950;22;20014;-89
2023/06/29 02:33:54;;;;;;;2.55;2.20;;;23.90;65.60;;;;;;7825074;22;20038;-89
2023/06/29 02:36:56;;;;;;;3.20;2.60;;;23.60;65.90;;;;;;7857562;22;20016;-89
2023/06/29 02:40:00;;;;;;;2.60;2.03;;;23.60;65.60;;;;;;7754776;22;20016;-89
2023/06/29 02:43:04;;;;;;;2.83;2.20;;;24.10;65.40;;;;;;7776851;22;20020;-89
2023/06/29 02:46:06;;;;;;;2.35;1.90;;;24.30;64.50;;;;;;7778073;22;20027;-89
2023/06/29 02:49:11;;;;;;;2.70;2.30;;;21.80;65.20;;;;;;7741844;23;20024;-90
2023/06/29 02:52:13;;;;;;;3.03;2.33;;;24.30;65.80;;;;;;7767695;22;20024;-89
2023/06/29 02:55:15;;;;;;;2.53;1.90;;;23.80;65.10;;;;;;7779858;22;20024;-89
2023/06/29 02:58:18;;;;;;;3.00;2.30;;;24.90;65.60;;;;;;7822195;22;20041;-89
2023/06/29 03:01:24;;;;;;;3.13;2.80;;;25.60;67.50;;;;;;7772800;22;20023;-89
2023/06/29 03:04:28;;;;;;;3.05;2.05;;;25.10;66.10;;;;;;7742757;23;20016;-89
2023/06/29 03:07:29;;;;;;;3.03;2.65;;;25.00;66.50;;;;;;7742167;22;20375;-89
2023/06/29 03:10:31;;;;;;;3.15;2.30;;;24.00;65.80;;;;;;7855121;22;20056;-90
2023/06/29 03:13:34;;;;;;;3.03;2.60;;;26.40;67.20;;;;;;7754090;22;20350;-89
2023/06/29 03:16:35;;;;;;;2.72;2.35;;;22.80;65.30;;;;;;7778960;22;20068;-89
2023/06/29 03:19:37;;;;;;;2.42;1.85;;;23.20;64.70;;;;;;7856408;22;20040;-89
2023/06/29 03:22:40;;;;;;;2.90;2.45;;;23.70;65.80;;;;;;7825575;22;20388;-89
2023/06/29 03:29:03;;;;;;;2.80;2.35;;;22.60;64.90;;;;;;7777546;22;20051;-52
2023/06/29 03:32:05;;;;;;;2.83;2.28;;;25.50;64.70;;;;;;7769947;22;20019;-53
2023/06/29 03:35:08;;;;;;;2.95;2.42;;;24.70;64.10;;;;;;7768014;22;20375;-54
2023/06/29 03:38:09;;;;;;;3.00;2.28;;;24.90;64.30;;;;;;7771365;22;20012;-55
2023/06/29 03:41:11;;;;;;;2.92;2.30;;;24.90;64.20;;;;;;7771678;22;20012;-55
2023/06/29 03:44:15;;;;;;;3.25;2.45;;;24.50;64.10;;;;;;7767382;22;20016;-54
2023/06/29 03:47:17;;;;;;;2.83;2.15;;;24.70;64.10;;;;;;7771844;22;20046;-53
2023/06/29 03:50:19;;;;;;;3.28;2.40;;;24.70;64.20;;;;;;7768258;22;20012;-52
2023/06/29 03:53:21;;;;;;;2.63;2.20;;;25.00;64.10;;;;;;7768416;22;20012;-55
2023/06/29 03:56:22;;;;;;;2.85;2.55;;;24.70;64.30;;;;;;7770761;22;20020;-55
2023/06/29 03:59:25;;;;;;;2.78;2.20;;;24.90;64.10;;;;;;7771953;22;20012;-55
2023/06/29 04:02:26;;;;;;;2.25;1.98;;;24.90;64.30;;;;;;7772355;22;20012;-53
2023/06/29 04:05:28;;;;;;;3.47;2.20;;;24.90;64.10;;;;;;7771746;22;20531;-54
2023/06/29 04:08:29;;;;;;;2.60;2.40;;;24.80;64.30;;;;;;7771314;22;20012;-55
2023/06/29 04:11:31;;;;;;;2.67;2.25;;;24.90;63.80;;;;;;7770585;22;20012;-54
2023/06/29 04:14:34;;;;;;;1.90;1.70;;;24.90;64.40;;;;;;7772120;22;20332;-55
2023/06/29 04:17:35;;;;;;;2.80;2.10;;;24.90;64.10;;;;;;7769954;22;20012;-53
2023/06/29 04:20:37;;;;;;;2.33;2.10;;;24.90;64.30;;;;;;7772089;22;20074;-55
2023/06/29 04:23:40;;;;;;;2.58;2.10;;;25.00;64.40;;;;;;7772389;22;20019;-54
2023/06/29 04:26:42;;;;;;;2.55;2.10;;;24.90;64.30;;;;;;7767984;22;20295;-55
2023/06/29 04:29:44;;;;;;;2.45;2.22;;;24.90;64.40;;;;;;7772000;22;20499;-55
2023/06/29 04:32:46;;;;;;;3.00;2.25;;;24.80;64.40;;;;;;7771982;22;20016;-55
2023/06/29 04:35:49;;;;;;;3.05;2.20;;;25.00;64.20;;;;;;7768465;22;20092;-54
2023/06/29 04:38:50;;;;;;;2.30;1.88;;;25.10;64.50;;;;;;7771735;22;20012;-54
2023/06/29 04:42:00;;;;;;;1.98;1.70;;;24.70;64.10;;;;;;7771793;22;20072;-55
2023/06/29 04:45:03;;;;;;;2.45;1.95;;;24.90;64.40;;;;;;7769973;22;20012;-54
2023/06/29 04:48:04;;;;;;;2.13;1.92;;;24.90;64.20;;;;;;7774194;22;20012;-54
2023/06/29 04:51:06;;;;;;;2.22;1.98;;;24.80;64.30;;;;;;7750541;22;20019;-54
2023/06/29 04:54:08;;;;;;;2.40;1.80;;;25.00;64.10;;;;;;7770936;22;20019;-53
2023/06/29 04:57:12;;;;;;;3.03;2.00;;;24.80;64.30;;;;;;7773743;22;20018;-54
2023/06/29 05:00:15;;;;;;;2.60;1.85;;;24.90;64.30;;;;;;7746672;22;20018;-55
2023/06/29 05:03:16;;;;;;;2.60;2.38;;;24.50;64.00;;;;;;7851866;22;20409;-55
2023/06/29 05:06:18;;;;;;;2.85;2.22;;;24.90;64.40;;;;;;7773925;22;20024;-53
2023/06/29 05:09:19;;;;;;;2.78;2.20;;;24.80;64.40;;;;;;7771258;22;20104;-55
2023/06/29 05:12:23;;;;;;;1.90;1.55;;;24.70;64.30;;;;;;7772780;22;20016;-54
2023/06/29 05:15:25;;;;;;;4.55;2.00;;;24.80;64.50;;;;;;7773953;22;20094;-54
2023/06/29 05:18:30;;;;;;;2.95;2.05;;;24.90;64.40;;;;;;7768806;22;20012;-54
2023/06/29 05:21:32;;;;;;;2.60;2.08;;;24.90;64.70;;;;;;7773839;22;20519;-55
2023/06/29 05:24:37;;;;;;;3.20;2.05;;;24.70;62.60;;;;;;7772762;22;20479;-55
2023/06/29 05:27:38;;;;;;;2.47;1.98;;;24.40;64.20;;;;;;7769497;22;20016;-52
2023/06/29 05:30:40;;;;;;;2.78;2.33;;;24.70;64.50;;;;;;7774332;22;20034;-55
2023/06/29 05:33:42;;;;;;;2.88;2.13;;;24.80;64.70;;;;;;7774482;22;20012;-52
2023/06/29 05:36:43;;;;;;;2.72;2.17;;;25.00;64.30;;;;;;7766792;22;20023;-54
2023/06/29 05:39:45;;;;;;;2.50;2.03;;;24.70;64.50;;;;;;7773360;22;20008;-56
2023/06/29 05:42:46;;;;;;;4.55;2.40;;;24.90;65.30;;;;;;7772934;22;20442;-56
2023/06/29 05:45:48;;;;;;;3.30;2.63;;;24.70;64.60;;;;;;7770418;22;20011;-55
2023/06/29 05:48:50;;;;;;;5.38;4.53;;;24.80;64.40;;;;;;7768980;22;20019;-55
2023/06/29 05:51:52;;;;;;;5.72;2.90;;;25.00;65.00;;;;;;7742631;22;20020;-55
2023/06/29 05:54:53;;;;;;;3.58;3.25;;;24.70;64.90;;;;;;7763334;22;20027;-56
2023/06/29 05:57:55;;;;;;;5.05;3.45;;;24.90;65.00;;;;;;7756328;22;20203;-53
2023/06/29 06:00:57;;;;;;;6.45;5.30;;;24.70;64.90;;;;;;7767752;22;20478;-53
2023/06/29 06:03:59;;;;;;;7.93;3.92;;;24.90;65.00;;;;;;7765376;22;20024;-55
2023/06/29 06:07:00;;;;;;;7.72;5.22;;;24.70;64.90;;;;;;7739996;22;20015;-52
2023/06/29 06:10:03;;;;;;;6.57;5.15;;;24.80;65.40;;;;;;7741809;22;20008;-54
2023/06/29 06:13:05;;;;;;;9.50;6.93;;;24.50;65.20;;;;;;7750235;22;20012;-54
2023/06/29 06:16:07;;;;;;;12.07;7.28;;;24.80;65.30;;;;;;7767203;22;20027;-53
2023/06/29 06:19:08;;;;;;;10.18;8.07;;;24.90;65.20;;;;;;7761400;22;20019;-55
2023/06/29 06:22:12;;;;;;;10.93;8.48;;;24.70;65.80;;;;;;7722146;22;20012;-54
2023/06/29 06:25:17;;;;;;;9.00;7.07;;;24.70;65.00;;;;;;7762808;22;20028;-56
2023/06/29 06:28:19;;;;;;;7.32;5.60;;;24.50;65.80;;;;;;7740866;22;20500;-55
2023/06/29 06:31:22;;;;;;;6.43;3.75;;;24.30;65.90;;;;;;7726092;22;20076;-56
2023/06/29 06:34:34;;;;;;;4.53;2.97;;;24.20;66.20;;;;;;7704158;22;20138;-57
2023/06/29 06:37:37;;;;;;;4.40;2.60;;;24.10;66.50;;;;;;7740106;22;20041;-54
2023/06/29 06:40:38;;;;;;;2.85;2.00;;;24.00;66.50;;;;;;7711190;22;20409;-54
2023/06/29 06:43:40;;;;;;;4.13;1.92;;;24.00;67.10;;;;;;7701412;22;20092;-55
2023/06/29 06:46:42;;;;;;;2.78;1.45;;;23.80;67.20;;;;;;7693876;22;20012;-55
2023/06/29 06:49:43;;;;;;;3.10;1.35;;;24.00;67.90;;;;;;7745792;22;20019;-57
2023/06/29 06:52:45;;;;;;;2.70;1.33;;;24.00;68.00;;;;;;7734591;22;20012;-55
2023/06/29 06:55:47;;;;;;;1.70;1.00;;;23.90;68.00;;;;;;7739711;22;20051;-55
2023/06/29 06:58:49;;;;;;;2.03;0.90;;;23.90;68.40;;;;;;7736907;22;20836;-56
2023/06/29 07:01:51;;;;;;;3.53;1.05;;;23.80;68.50;;;;;;7707826;22;20004;-53
2023/06/29 07:04:52;;;;;;;3.15;1.45;;;23.90;68.50;;;;;;7726411;22;20032;-54
2023/06/29 07:07:54;;;;;;;1.95;0.95;;;23.80;68.30;;;;;;7726872;22;20012;-54
2023/06/29 07:10:56;;;;;;;2.13;0.90;;;23.60;68.20;;;;;;7822237;22;20013;-50
2023/06/29 07:13:57;;;;;;;2.50;0.93;;;23.60;68.00;;;;;;7681946;22;20635;-52
2023/06/29 07:17:00;;;;;;;4.90;1.50;;;23.90;68.80;;;;;;7675996;22;20026;-56
2023/06/29 07:20:03;;;;;;;2.33;1.00;;;23.70;68.60;;;;;;7730150;22;20483;-53
2023/06/29 07:23:08;;;;;;;1.60;1.05;;;23.60;68.10;;;;;;7722323;22;20603;-55
2023/06/29 07:26:13;;;;;;;2.40;0.90;;;23.20;68.00;;;;;;7725479;22;20043;-54
2023/06/29 07:29:14;;;;;;;5.15;1.35;;;23.90;68.50;;;;;;7707288;22;20023;-53
2023/06/29 07:32:17;;;;;;;2.80;1.13;;;23.70;67.90;;;;;;7729547;22;20674;-51
2023/06/29 07:35:18;;;;;;;2.30;0.73;;;23.90;68.60;;;;;;7725795;22;20046;-51
2023/06/29 07:38:20;;;;;;;1.60;0.80;;;23.60;68.50;;;;;;7713672;22;20223;-52
2023/06/29 07:41:22;;;;;;;0.77;0.60;;;24.00;69.00;;;;;;7679306;22;20034;-52
2023/06/29 07:44:27;;;;;;;1.77;0.70;;;22.90;67.90;;;;;;7770201;22;20037;-51
2023/06/29 07:47:29;;;;;;;1.40;0.60;;;24.00;68.50;;;;;;7712330;22;20490;-49
2023/06/29 07:50:31;;;;;;;1.85;0.60;;;24.00;67.90;;;;;;7719700;22;20502;-54
2023/06/29 07:53:33;;;;;;;1.05;0.50;;;24.10;68.10;;;;;;7678621;22;20068;-54
2023/06/29 07:56:35;;;;;;;0.75;0.65;;;24.20;68.10;;;;;;7672500;22;20011;-54
2023/06/29 07:59:39;;;;;;;0.93;0.47;;;24.10;68.30;;;;;;7680018;22;20486;-54
2023/06/29 08:02:42;;;;;;;1.48;0.43;;;24.00;67.80;;;;;;7697413;22;20372;-54
2023/06/29 08:05:44;;;;;;;0.50;0.50;;;24.00;67.30;;;;;;7723047;22;20572;-55
2023/06/29 08:08:56;;;;;;;2.35;0.60;;;24.30;67.20;;;;;;7727969;22;20026;-58
2023/06/29 08:11:58;;;;;;;0.70;0.30;;;24.20;67.10;;;;;;7723200;22;20017;-57
2023/06/29 08:15:02;;;;;;;0.45;0.25;;;24.20;67.00;;;;;;7730551;22;20016;-59
2023/06/29 08:18:07;;;;;;;1.67;0.50;;;24.10;67.00;;;;;;7690599;22;20043;-55
2023/06/29 08:21:10;;;;;;;1.98;0.30;;;24.20;67.20;;;;;;7712689;22;20019;-55
2023/06/29 08:24:12;;;;;;;9.93;0.70;;;24.40;67.20;;;;;;7775965;22;20018;-56
2023/06/29 08:27:15;;;;;;;0.70;0.38;;;24.40;66.90;;;;;;7758191;22;20018;-56
2023/06/29 08:30:17;;;;;;;1.80;0.40;;;24.40;67.50;;;;;;7698215;22;20058;-55
2023/06/29 08:33:23;;;;;;;1.30;0.30;;;24.00;66.30;;;;;;7680322;22;20030;-51
2023/06/29 08:36:28;;;;;;;0.85;0.40;;;24.40;66.70;;;;;;7689813;22;20023;-57
2023/06/29 08:39:29;;;;;;;1.15;0.30;;;24.40;65.90;;;;;;7680575;22;20016;-58
2023/06/29 08:42:31;;;;;;;0.47;0.28;;;25.40;67.40;;;;;;7705875;22;20012;-58
2023/06/29 08:45:33;;;;;;;0.40;0.30;;;24.30;66.30;;;;;;7718602;22;20642;-57
2023/06/29 08:48:36;;;;;;;0.20;0.20;;;24.50;66.80;;;;;;7716966;22;20089;-56
2023/06/29 08:51:42;;;;;;;0.38;0.20;;;24.50;66.90;;;;;;7690754;22;20018;-58
2023/06/29 08:54:49;;;;;;;0.80;0.28;;;24.70;66.70;;;;;;7695050;22;20605;-57
2023/06/29 08:57:52;;;;;;;0.93;0.32;;;24.50;66.60;;;;;;7694811;22;20022;-57
2023/06/29 09:00:54;;;;;;;0.85;0.38;;;24.80;66.00;;;;;;7708691;22;20087;-56
2023/06/29 09:03:57;;;;;;;1.00;0.30;;;24.70;66.10;;;;;;7719368;22;20008;-56
2023/06/29 09:07:03;;;;;;;0.45;0.20;;;24.70;66.90;;;;;;7708286;22;20068;-57
2023/06/29 09:10:06;;;;;;;0.30;0.20;;;24.30;66.10;;;;;;7633236;22;20008;-54
2023/06/29 09:13:09;;;;;;;0.57;0.30;;;24.70;67.80;;;;;;7625101;22;20018;-57
2023/06/29 09:16:11;;;;;;;0.43;0.20;;;24.80;66.70;;;;;;7635318;22;20034;-53
2023/06/29 09:19:14;;;;;;;0.47;0.20;;;24.40;65.90;;;;;;7680539;22;20083;-56
2023/06/29 09:22:16;;;;;;;0.40;0.30;;;24.50;66.20;;;;;;7721029;22;20618;-57
2023/06/29 09:25:18;;;;;;;0.20;0.20;;;24.80;66.60;;;;;;7731724;22;20016;-51
2023/06/29 09:28:35;;;;;;;0.20;0.20;;;24.90;66.10;;;;;;7701585;22;20055;-52
2023/06/29 09:31:37;;;;;;;1.15;0.38;;;24.50;66.30;;;;;;7724597;22;20024;-58
2023/06/29 09:34:44;;;;;;;0.57;0.22;;;23.50;65.90;;;;;;7711964;22;20007;-58
2023/06/29 09:37:46;;;;;;;0.90;0.40;;;24.90;76.60;;;;;;7681667;22;20332;-59
2023/06/29 09:40:49;;;;;;;0.70;0.40;;;24.70;66.10;;;;;;7711621;22;20018;-58
2023/06/29 09:43:53;;;;;;;4.00;0.55;;;24.80;66.00;;;;;;7675673;22;20032;-58
2023/06/29 09:47:05;;;;;;;0.73;0.30;;;24.90;65.60;;;;;;7714682;22;20042;-58
2023/06/29 09:50:18;;;;;;;0.95;0.20;;;24.70;65.70;;;;;;7721317;22;20087;-58
2023/06/29 09:53:29;;;;;;;0.30;0.30;;;24.70;65.80;;;;;;7690866;22;20763;-57
2023/06/29 09:56:33;;;;;;;;;;;25.00;65.70;;;;;;7685294;22;20026;-58
2023/06/29 09:59:37;;;;;;;0.85;0.30;;;24.90;65.90;;;;;;7723620;22;19915;-58
2023/06/29 10:02:41;;;;;;;1.17;0.20;;;25.10;66.10;;;;;;7790085;22;20090;-60
2023/06/29 10:05:43;;;;;;;1.23;0.20;;;24.90;65.50;;;;;;7703316;22;20563;-61
2023/06/29 10:08:49;;;;;;;0.75;0.30;;;24.80;65.80;;;;;;7698052;22;20691;-61
2023/06/29 10:11:53;;;;;;;0.85;0.25;;;24.90;65.30;;;;;;7676304;22;20654;-61
2023/06/29 10:15:00;;;;;;;1.23;0.25;;;24.80;65.80;;;;;;7699119;22;20645;-60
2023/06/29 10:18:08;;;;;;;0.32;0.28;;;24.90;65.10;;;;;;7638209;22;20009;-59
2023/06/29 10:21:11;;;;;;;0.30;0.20;;;25.20;65.30;;;;;;7634387;22;20098;-59
2023/06/29 10:24:15;;;;;;;1.08;0.40;;;24.10;64.50;;;;;;7659237;22;20758;-60
2023/06/29 10:27:21;;;;;;;2.33;0.40;;;24.90;64.90;;;;;;7637867;22;20098;-59
2023/06/29 10:30:23;;;;;;;1.25;0.13;;;25.40;65.00;;;;;;7657079;22;20406;-57
2023/06/29 10:33:25;;;;;;;0.20;0.20;;;25.10;64.70;;;;;;7649309;22;20022;-58
2023/06/29 10:36:44;;;;;;;0.30;0.20;;;26.20;65.30;;;;;;7666308;22;20103;-58
2023/06/29 10:39:46;;;;;;;1.30;0.20;;;25.00;64.40;;;;;;7687704;22;20016;-59
2023/06/29 10:42:50;;;;;;;0.52;0.30;;;25.10;63.50;;;;;;7705268;22;20047;-59
2023/06/29 10:45:52;;;;;;;1.38;0.20;;;24.40;63.30;;;;;;7688201;22;20026;-58
2023/06/29 10:48:59;;;;;;;0.28;0.28;;;25.00;63.30;;;;;;7715513;22;20067;-59
2023/06/29 10:52:03;;;;;;;0.20;0.15;;;25.10;63.40;;;;;;7724992;22;20726;-58
2023/06/29 10:55:14;;;;;;;0.50;0.30;;;25.10;63.10;;;;;;7693211;22;20101;-58
2023/06/29 10:58:19;;;;;;;1.13;0.20;;;25.00;62.80;;;;;;7714023;22;20534;-58
2023/06/29 11:01:21;;;;;;;0.50;0.20;;;25.10;62.70;;;;;;7664400;22;20072;-57
2023/06/29 11:04:23;;;;;;;0.63;0.13;;;25.10;63.10;;;;;;7724469;22;20111;-58
2023/06/29 11:07:25;;;;;;;0.38;0.20;;;25.10;62.30;;;;;;7675756;22;20008;-58
2023/06/29 11:10:28;;;;;;;0.55;0.30;;;25.30;62.70;;;;;;7689860;22;20019;-58
2023/06/29 11:13:32;;;;;;;1.67;0.30;;;25.60;62.50;;;;;;7704380;22;20016;-58
2023/06/29 11:16:34;;;;;;;0.47;0.22;;;25.20;62.50;;;;;;7719870;22;20012;-58
2023/06/29 11:19:42;;;;;;;0.43;0.30;;;25.30;61.60;;;;;;7727584;22;20661;-58
2023/06/29 11:22:45;;;;;;;0.38;0.20;;;25.60;62.40;;;;;;7724650;22;20012;-58
2023/06/29 11:25:47;;;;;;;0.82;0.30;;;25.40;61.80;;;;;;7719363;22;20008;-58
2023/06/29 11:28:49;;;;;;;0.38;0.28;;;25.30;61.30;;;;;;7727864;22;20558;-58
2023/06/29 11:31:50;;;;;;;0.40;0.17;;;25.60;61.50;;;;;;7680581;22;20052;-58
2023/06/29 11:34:56;;;;;;;1.00;0.30;;;25.20;61.30;;;;;;7729352;22;20016;-58
2023/06/29 11:38:00;;;;;;;3.05;0.30;;;25.30;60.80;;;;;;7712081;22;20623;-58
2023/06/29 11:41:05;;;;;;;0.57;0.20;;;25.10;61.20;;;;;;7715301;22;20083;-58
2023/06/29 11:44:08;;;;;;;0.57;0.20;;;25.30;60.40;;;;;;7704199;22;20016;-58
2023/06/29 11:47:15;;;;;;;1.63;0.30;;;25.30;60.90;;;;;;7707366;22;20097;-61
2023/06/29 11:50:36;;;;;;;0.28;0.20;;;25.30;60.20;;;;;;7678390;22;20015;-62
2023/06/29 11:53:40;;;;;;;1.80;0.38;;;25.40;60.30;;;;;;7702076;22;20008;-61
2023/06/29 11:56:43;;;;;;;1.95;0.55;;;25.50;60.20;;;;;;7719199;22;20044;-61
2023/06/29 11:59:45;;;;;;;0.35;0.20;;;25.30;59.90;;;;;;7763718;22;20008;-61
2023/06/29 12:02:46;;;;;;;1.58;0.40;;;25.50;60.30;;;;;;7670754;22;20012;-61
2023/06/29 12:05:48;;;;;;;0.20;0.17;;;25.50;59.90;;;;;;7720366;22;20016;-62
2023/06/29 12:08:53;;;;;;;0.80;0.43;;;25.60;59.20;;;;;;7688396;22;20811;-62
2023/06/29 12:11:59;;;;;;;0.50;0.30;;;25.10;59.50;;;;;;7720260;22;20063;-62
2023/06/29 12:15:11;;;;;;;1.45;0.40;;;25.50;56.90;;;;;;7692394;22;20012;-62
2023/06/29 12:18:16;;;;;;;0.43;0.20;;;25.70;59.80;;;;;;7708649;22;20068;-62
2023/06/29 12:21:22;;;;;;;0.47;0.30;;;25.50;58.90;;;;;;7725824;22;20039;-61
2023/06/29 12:24:25;;;;;;;1.27;0.60;;;25.70;56.50;;;;;;7705909;22;20024;-61
2023/06/29 12:27:27;;;;;;;0.35;0.30;;;25.80;59.10;;;;;;7694746;22;20014;-61
2023/06/29 12:30:28;;;;;;;0.28;0.20;;;25.40;58.40;;;;;;7637964;22;20031;-62
2023/06/29 12:33:30;;;;;;;1.73;0.38;;;25.70;58.30;;;;;;7753297;22;20023;-59
2023/06/29 12:36:31;;;;;;;1.65;0.20;;;25.60;58.00;;;;;;7728429;22;20023;-59
2023/06/29 12:39:34;;;;;;;0.17;0.10;;;25.10;56.80;;;;;;7700717;22;20064;-61
2023/06/29 12:42:38;;;;;;;0.55;0.20;;;25.20;56.70;;;;;;7673177;22;20011;-59
2023/06/29 12:45:43;;;;;;;1.33;0.15;;;25.80;54.30;;;;;;7662636;22;20016;-59
2023/06/29 12:48:45;;;;;;;0.30;0.17;;;25.40;54.60;;;;;;7717019;22;20016;-60
2023/06/29 12:51:46;;;;;;;0.95;0.20;;;25.70;56.10;;;;;;7692798;22;20076;-58
2023/06/29 12:54:49;;;;;;;0.10;0.10;;;25.60;56.50;;;;;;7656291;22;20008;-58
2023/06/29 12:57:51;;;;;;;0.95;0.22;;;25.70;55.80;;;;;;7677105;22;20079;-57
2023/06/29 13:00:53;;;;;;;0.10;0.10;;;24.60;55.10;;;;;;7707400;22;20022;-57
2023/06/29 13:03:57;;;;;;;1.13;0.20;;;25.40;55.50;;;;;;7711988;22;20047;-60
2023/06/29 13:06:59;;;;;;;1.27;0.20;;;25.80;55.80;;;;;;7721819;22;20090;-59
2023/06/29 13:10:03;;;;;;;0.45;0.20;;;25.50;55.30;;;;;;7701505;22;20036;-59
2023/06/29 13:13:05;;;;;;;0.20;0.20;;;24.00;54.50;;;;;;7695234;22;20012;-57
2023/06/29 13:16:06;;;;;;;5.47;0.20;;;25.40;55.00;;;;;;7722716;22;20353;-59
2023/06/29 13:19:08;;;;;;;0.20;0.13;;;25.50;55.50;;;;;;7720256;22;20328;-59
2023/06/29 13:22:10;;;;;;;1.05;0.30;;;25.50;54.80;;;;;;7707051;22;20024;-59
2023/06/29 13:25:12;;;;;;;0.20;0.10;;;25.50;54.80;;;;;;7796031;22;20695;-59
2023/06/29 13:28:14;;;;;;;0.28;0.20;;;25.30;54.70;;;;;;7696313;22;20679;-59
2023/06/29 13:31:16;;;;;;;0.28;0.20;;;25.70;55.40;;;;;;7720479;22;20144;-58
2023/06/29 13:34:17;;;;;;;0.20;0.13;;;25.50;54.90;;;;;;7691665;22;20052;-59
2023/06/29 13:37:22;;;;;;;0.28;0.10;;;25.30;54.90;;;;;;7684201;22;20020;-58
2023/06/29 13:40:24;;;;;;;0.10;0.10;;;25.60;55.20;;;;;;7705409;22;20391;-59
2023/06/29 13:43:26;;;;;;;0.43;0.30;;;25.20;54.40;;;;;;7691220;22;20234;-58
2023/06/29 13:46:28;;;;;;;0.15;0.15;;;25.50;54.90;;;;;;7707370;22;20020;-59
2023/06/29 13:49:29;;;;;;;0.32;0.10;;;25.50;54.80;;;;;;7717743;22;20473;-58
2023/06/29 13:52:34;;;;;;;0.10;0.10;;;25.40;54.20;;;;;;7720126;22;20011;-58
2023/06/29 13:55:36;;;;;;;0.50;0.30;;;25.20;51.60;;;;;;7699820;22;20023;-60
2023/06/29 13:58:38;;;;;;;0.85;0.10;;;25.90;54.40;;;;;;7718413;22;20012;-60
2023/06/29 14:01:40;;;;;;;0.10;0.10;;;25.10;54.10;;;;;;7718446;22;20559;-59
2023/06/29 14:04:42;;;;;;;0.10;0.10;;;25.50;54.10;;;;;;7677129;22;20019;-59
2023/06/29 14:07:44;;;;;;;0.70;0.10;;;25.30;54.70;;;;;;7671664;22;20012;-59
2023/06/29 14:10:46;;;;;;;0.47;0.20;;;25.20;54.60;;;;;;7668994;22;20782;-59
2023/06/29 14:13:48;;;;;;;1.08;0.15;;;25.40;54.40;;;;;;7684356;22;20008;-58
2023/06/29 14:16:52;;;;;;;0.57;0.20;;;25.40;54.40;;;;;;7686588;22;20016;-59
2023/06/29 14:19:56;;;;;;;0.65;0.10;;;25.30;54.40;;;;;;7687538;22;20019;-61
2023/06/29 14:22:59;;;;;;;0.57;0.20;;;25.30;54.30;;;;;;7683135;22;20092;-63
2023/06/29 14:26:02;;;;;;;1.08;0.10;;;25.40;54.30;;;;;;7680537;22;20008;-64
2023/06/29 14:29:03;;;;;;;1.15;0.20;;;25.60;54.50;;;;;;7689883;22;20044;-60
2023/06/29 14:32:05;;;;;;;0.25;0.20;;;25.30;54.30;;;;;;7720130;22;20012;-60
2023/06/29 14:35:07;;;;;;;0.38;0.20;;;25.50;54.20;;;;;;7696440;22;20015;-59
2023/06/29 14:38:11;;;;;;;0.40;0.35;;;25.20;54.20;;;;;;7683514;22;20027;-59
2023/06/29 14:41:16;;;;;;;0.50;0.22;;;25.00;54.00;;;;;;7682521;22;20140;-59
2023/06/29 14:44:18;;;;;;;0.20;0.20;;;25.10;54.30;;;;;;7696223;22;20016;-56
2023/06/29 14:47:22;;;;;;;0.95;0.10;;;25.60;54.70;;;;;;7659283;22;20291;-58
2023/06/29 14:50:26;;;;;;;0.68;0.25;;;25.50;54.60;;;;;;7655186;22;20022;-56
2023/06/29 14:53:28;;;;;;;1.17;0.20;;;25.60;52.00;;;;;;7664037;22;20008;-56
2023/06/29 14:56:31;;;;;;;0.50;0.30;;;24.90;53.90;;;;;;7684785;22;20062;-59
2023/06/29 14:59:33;;;;;;;1.13;0.25;;;25.30;54.00;;;;;;7685641;22;20023;-57
2023/06/29 15:02:38;;;;;;;0.55;0.30;;;25.40;54.00;;;;;;7685244;22;20070;-58
2023/06/29 15:05:39;;;;;;;0.20;0.15;;;25.30;53.80;;;;;;7711297;22;20091;-57
2023/06/29 15:08:41;;;;;;;0.40;0.20;;;24.70;53.90;;;;;;7720053;22;20015;-59
2023/06/29 15:11:43;;;;;;;0.10;0.10;;;25.30;54.40;;;;;;7683657;22;20078;-60
2023/06/29 15:14:44;;;;;;;1.75;0.20;;;25.10;54.10;;;;;;7710953;22;20023;-59
2023/06/29 15:17:46;;;;;;;1.17;0.13;;;25.20;54.80;;;;;;7697897;22;20022;-58
2023/06/29 15:20:51;;;;;;;0.32;0.20;;;25.20;54.30;;;;;;7696720;22;20094;-58
2023/06/29 15:23:52;;;;;;;1.23;0.20;;;24.80;54.00;;;;;;7717303;22;20566;-58
2023/06/29 15:26:55;;;;;;;0.55;0.20;;;25.40;54.30;;;;;;7724722;22;20521;-58
2023/06/29 15:29:57;;;;;;;1.95;0.38;;;25.30;52.50;;;;;;7706473;22;20018;-59
2023/06/29 15:32:59;;;;;;;0.90;0.22;;;24.90;54.00;;;;;;7634544;22;20638;-58
2023/06/29 15:36:07;;;;;;;0.30;0.20;;;25.30;53.60;;;;;;7658621;22;20183;-60
2023/06/29 15:39:09;;;;;;;0.80;0.20;;;24.90;53.60;;;;;;7726156;22;20014;-60
2023/06/29 15:42:12;;;;;;;0.38;0.20;;;25.40;54.10;;;;;;7679389;22;20016;-60
2023/06/29 15:45:15;;;;;;;1.10;0.13;;;25.40;53.70;;;;;;7730797;22;20018;-61
2023/06/29 15:48:16;;;;;;;0.30;0.28;;;25.30;53.30;;;;;;7740088;22;20008;-61
2023/06/29 15:51:18;;;;;;;0.13;0.13;;;25.60;53.70;;;;;;7729136;22;20036;-60
2023/06/29 15:54:20;;;;;;;0.30;0.20;;;25.30;53.30;;;;;;7725653;22;20016;-60
2023/06/29 15:57:22;;;;;;;0.63;0.28;;;25.40;53.40;;;;;;7720838;22;20371;-60